Time;durP1;ratioP1;P1;durP2;ratioP2;P2;SDS_P1;SDS_P2;PMS_P1;PMS_P2;Temp;Humidity;BMP_temperature;BMP_pressure;BME280_temperature;BME280_humidity;BME280_pressure;Samples;Min_cycle;Max_cycle;Signal;HPM_P1;HPM_P2
2023/04/09 00:01:31;;;;;;;19.50;16.30;;;;;;;11.59;66.37;101039.61;104718;1265;66253;-56
2023/04/09 00:04:00;;;;;;;24.00;20.40;;;;;;;11.49;65.90;101046.24;105039;1265;64464;-56
2023/04/09 00:06:28;;;;;;;23.90;18.80;;;;;;;11.36;66.11;101045.95;104931;1265;63995;-56
2023/04/09 00:08:57;;;;;;;23.80;17.90;;;;;;;11.31;66.57;101043.67;105121;1264;60586;-56
2023/04/09 00:11:28;;;;;;;20.30;17.50;;;;;;;11.32;66.98;101042.57;105127;1264;60471;-56
2023/04/09 00:13:57;;;;;;;22.30;16.90;;;;;;;11.33;67.19;101041.79;105437;1264;66192;-55
2023/04/09 00:16:25;;;;;;;22.30;18.50;;;;;;;11.28;67.06;101040.58;105036;1265;62672;-55
2023/04/09 00:18:55;;;;;;;24.90;18.10;;;;;;;11.19;66.73;101042.86;104986;1261;65105;-55
2023/04/09 00:21:23;;;;;;;24.00;18.40;;;;;;;11.08;66.69;101042.34;105049;1267;61706;-55
2023/04/09 00:23:52;;;;;;;23.50;16.80;;;;;;;11.00;66.82;101037.16;105137;1261;60449;-55
2023/04/09 00:26:20;;;;;;;20.80;16.40;;;;;;;11.00;67.19;101037.14;104947;1265;66225;-55
2023/04/09 00:28:50;;;;;;;21.40;15.60;;;;;;;11.05;67.44;101033.29;104882;1265;62694;-55
2023/04/09 00:31:20;;;;;;;18.10;14.80;;;;;;;11.05;67.63;101026.80;104939;1265;65034;-55
2023/04/09 00:33:49;;;;;;;19.90;14.80;;;;;;;11.02;67.77;101024.75;105396;1265;60425;-55
2023/04/09 00:36:17;;;;;;;20.50;14.20;;;;;;;10.97;67.90;101023.33;104934;1266;60579;-55
2023/04/09 00:38:47;;;;;;;18.40;13.60;;;;;;;10.92;67.87;101022.43;108551;1262;66332;-55
2023/04/09 00:41:17;;;;;;;18.60;13.50;;;;;;;10.91;67.78;101019.15;105334;1260;62622;-56
2023/04/09 00:43:45;;;;;;;17.40;14.00;;;;;;;10.88;67.99;101019.55;104944;1265;65216;-56
2023/04/09 00:46:14;;;;;;;18.60;14.50;;;;;;;10.81;68.29;101019.36;104894;1261;60516;-55
2023/04/09 00:48:43;;;;;;;21.90;13.90;;;;;;;10.71;68.42;101020.20;105148;1267;61674;-56
2023/04/09 00:51:11;;;;;;;16.00;12.40;;;;;;;10.62;68.58;101023.13;106936;1264;66463;-56
2023/04/09 00:53:42;;;;;;;16.70;13.10;;;;;;;10.60;68.67;101027.66;104967;1265;62679;-56
2023/04/09 00:56:11;;;;;;;20.00;12.60;;;;;;;10.62;68.75;101030.20;104859;1267;63916;-56
2023/04/09 00:58:39;;;;;;;19.50;12.20;;;;;;;10.61;68.94;101031.29;104909;1266;60580;-55
2023/04/09 01:01:08;;;;;;;18.80;12.40;;;;;;;10.60;68.98;101032.75;104894;1263;60567;-56
2023/04/09 01:03:36;;;;;;;15.10;11.60;;;;;;;10.56;68.85;101035.98;104855;1267;65738;-55
2023/04/09 01:06:10;;;;;;;15.20;10.70;;;;;;;10.54;68.98;101038.45;105329;1265;62648;-55
2023/04/09 01:08:57;;;;;;;16.10;11.40;;;;;;;10.56;68.83;101041.98;105003;1265;65073;-54
2023/04/09 01:11:58;;;;;;;13.80;10.40;;;;;;;10.59;68.33;101048.24;104813;1267;60472;-55
2023/04/09 01:14:52;;;;;;;13.70;10.50;;;;;;;10.59;68.07;101051.39;104793;1271;60609;-55
2023/04/09 01:17:36;;;;;;;14.30;10.60;;;;;;;10.55;67.63;101051.70;104956;1265;66114;-55
2023/04/09 01:20:13;;;;;;;15.80;11.50;;;;;;;10.47;67.41;101049.30;104953;1264;62664;-56
2023/04/09 01:22:57;;;;;;;14.90;11.00;;;;;;;10.38;67.37;101048.30;104984;1266;65231;-55
2023/04/09 01:25:39;;;;;;;15.40;11.40;;;;;;;10.31;67.26;101047.91;104975;1267;60489;-56
2023/04/09 01:28:18;;;;;;;13.50;10.60;;;;;;;10.25;67.24;101053.39;105008;1264;60513;-55
2023/04/09 01:30:48;;;;;;;14.90;10.40;;;;;;;10.17;66.99;101057.22;104971;1261;65196;-56
2023/04/09 01:33:18;;;;;;;12.30;9.30;;;;;;;10.17;66.79;101059.86;104932;1267;62360;-54
2023/04/09 01:35:47;;;;;;;15.00;9.80;;;;;;;10.17;66.58;101063.17;105938;1261;64005;-55
2023/04/09 01:38:17;;;;;;;14.10;9.60;;;;;;;10.18;66.65;101061.38;104974;1262;60555;-54
2023/04/09 01:40:46;;;;;;;12.40;9.40;;;;;;;10.17;67.03;101059.83;105167;1265;60672;-55
2023/04/09 01:43:16;;;;;;;13.00;10.10;;;;;;;10.16;67.18;101060.11;105229;1266;66103;-55
2023/04/09 01:45:46;;;;;;;14.20;9.90;;;;;;;10.11;67.06;101060.45;105012;1261;62448;-55
2023/04/09 01:48:15;;;;;;;14.20;10.90;;;;;;;10.06;66.95;101060.83;104992;1266;63983;-55
2023/04/09 01:50:46;;;;;;;14.00;10.90;;;;;;;10.00;66.88;101065.20;104887;1261;60611;-55
2023/04/09 01:53:14;;;;;;;13.90;9.60;;;;;;;9.95;66.85;101066.92;104773;1267;60502;-55
2023/04/09 01:55:42;;;;;;;14.60;9.60;;;;;;;9.96;66.63;101067.79;104646;1267;66003;-56
2023/04/09 01:58:11;;;;;;;14.90;9.80;;;;;;;9.97;66.51;101067.52;104525;1264;62667;-56
2023/04/09 02:00:45;;;;;;;12.60;9.30;;;;;;;9.95;66.53;101064.30;104533;1265;64778;-56
2023/04/09 02:03:18;;;;;;;12.90;9.50;;;;;;;9.94;66.68;101068.96;105380;1264;60915;-55
2023/04/09 02:05:55;;;;;;;13.50;9.90;;;;;;;9.92;66.68;101072.55;104725;1262;60957;-55
2023/04/09 02:08:23;;;;;;;12.60;9.60;;;;;;;9.88;66.52;101076.89;104759;1263;66184;-56
2023/04/09 02:10:54;;;;;;;13.70;9.90;;;;;;;9.80;66.45;101079.46;104674;1266;62757;-55
2023/04/09 02:13:24;;;;;;;18.90;11.00;;;;;;;9.73;66.46;101073.98;104818;1265;64983;-56
2023/04/09 02:15:57;;;;;;;12.80;8.30;;;;;;;9.72;66.32;101068.11;104653;1267;60559;-55
2023/04/09 02:18:27;;;;;;;10.80;8.80;;;;;;;9.73;66.33;101068.56;104593;1266;60528;-56
2023/04/09 02:20:56;;;;;;;14.00;9.30;;;;;;;9.74;66.27;101071.52;104774;1264;64930;-55
2023/04/09 02:23:26;;;;;;;14.70;11.00;;;;;;;9.69;66.24;101068.09;104749;1265;62720;-56
2023/04/09 02:25:54;;;;;;;13.50;10.40;;;;;;;9.64;66.34;101072.11;104835;1264;65191;-55
2023/04/09 02:28:25;;;;;;;11.50;9.00;;;;;;;9.61;66.75;101067.08;105130;1269;60522;-56
2023/04/09 02:30:53;;;;;;;13.40;10.10;;;;;;;9.60;66.89;101070.45;104984;1260;60521;-56
2023/04/09 02:33:22;;;;;;;13.80;10.50;;;;;;;9.57;67.10;101071.70;105146;1267;66413;-55
2023/04/09 02:35:50;;;;;;;12.60;9.20;;;;;;;9.54;67.27;101074.15;104684;1265;71254;-56
2023/04/09 02:38:20;;;;;;;11.10;8.60;;;;;;;9.58;67.02;101073.05;104981;1267;64843;-56
2023/04/09 02:40:53;;;;;;;10.90;7.90;;;;;;;9.62;66.80;101073.64;104840;1264;60458;-55
2023/04/09 02:43:23;;;;;;;11.80;8.20;;;;;;;9.64;66.59;101078.05;104928;1266;60379;-56
2023/04/09 02:45:51;;;;;;;13.00;9.30;;;;;;;9.63;66.52;101078.70;105196;1263;66036;-55
2023/04/09 02:48:20;;;;;;;14.60;10.70;;;;;;;9.60;66.63;101073.60;104914;1266;62662;-56
2023/04/09 02:50:50;;;;;;;14.20;10.10;;;;;;;9.57;66.68;101072.40;104797;1264;65231;-55
2023/04/09 02:53:20;;;;;;;14.80;10.50;;;;;;;9.53;66.59;101073.40;104986;1267;60640;-57
2023/04/09 02:55:49;;;;;;;13.20;11.00;;;;;;;9.46;66.60;101071.16;104991;1260;60535;-56
2023/04/09 02:58:17;;;;;;;11.80;9.90;;;;;;;9.40;66.70;101070.84;104885;1266;66159;-55
2023/04/09 03:00:48;;;;;;;12.80;10.20;;;;;;;9.40;66.64;101066.85;104911;1266;61437;-55
2023/04/09 03:03:17;;;;;;;13.60;9.70;;;;;;;9.43;66.69;101066.84;104838;1261;64922;-55
2023/04/09 03:05:45;;;;;;;15.70;10.10;;;;;;;9.46;66.77;101070.80;104872;1261;61535;-55
2023/04/09 03:08:13;;;;;;;14.40;10.00;;;;;;;9.46;66.86;101072.56;105302;1262;61627;-55
2023/04/09 03:10:45;;;;;;;14.90;10.70;;;;;;;9.46;67.16;101072.21;104924;1264;66208;-55
2023/04/09 03:13:14;;;;;;;14.70;11.20;;;;;;;9.51;67.65;101071.60;105057;1261;63115;-55
2023/04/09 03:15:45;;;;;;;12.50;9.50;;;;;;;9.55;67.95;101072.70;105153;1261;65034;-56
2023/04/09 03:18:15;;;;;;;14.90;9.70;;;;;;;9.58;67.52;101068.14;104787;1267;63443;-56
2023/04/09 03:20:44;;;;;;;13.10;10.60;;;;;;;9.61;67.38;101068.81;105022;1262;60397;-57
2023/04/09 03:23:18;;;;;;;14.20;10.70;;;;;;;9.64;67.73;101073.91;106187;1260;75278;-55
2023/04/09 03:25:47;;;;;;;13.80;10.30;;;;;;;9.64;67.76;101075.46;105327;1260;62702;-54
2023/04/09 03:28:16;;;;;;;17.20;11.40;;;;;;;9.64;67.95;101077.19;104947;1266;64750;-55
2023/04/09 03:30:47;;;;;;;15.40;11.30;;;;;;;9.65;68.14;101078.53;104936;1261;60702;-55
2023/04/09 03:33:18;;;;;;;15.10;10.90;;;;;;;9.72;68.11;101080.40;104856;1261;60522;-55
2023/04/09 03:35:51;;;;;;;16.20;10.60;;;;;;;9.77;68.04;101076.34;105335;1261;65201;-55
2023/04/09 03:38:28;;;;;;;18.10;11.80;;;;;;;9.79;68.24;101073.94;104911;1261;62696;-55
2023/04/09 03:40:58;;;;;;;14.60;10.20;;;;;;;9.78;68.25;101077.33;104579;1267;420508;-55
2023/04/09 03:44:32;;;;;;;10.30;4.80;;;;;;;9.54;68.97;101073.13;102343;1295;601041;-55
2023/04/09 03:47:07;;;;;;;12.50;9.50;;;;;;;9.74;68.36;101075.15;104702;1267;59404;-55
2023/04/09 03:49:37;;;;;;;13.20;9.40;;;;;;;9.81;68.28;101074.85;104544;1267;60129;-55
2023/04/09 03:52:13;;;;;;;14.30;10.30;;;;;;;9.88;68.41;101079.84;104501;1267;64270;-54
2023/04/09 03:54:44;;;;;;;14.10;9.90;;;;;;;9.92;68.41;101079.60;104715;1267;62668;-54
2023/04/09 03:57:16;;;;;;;14.00;10.60;;;;;;;9.91;68.25;101079.48;104651;1264;194331;-55
2023/04/09 03:59:50;;;;;;;13.80;10.90;;;;;;;9.90;68.25;101075.55;104818;1263;59375;-55
2023/04/09 04:02:21;;;;;;;13.70;10.50;;;;;;;9.87;68.42;101076.74;104883;1263;59435;-55
2023/04/09 04:04:57;;;;;;;15.50;10.80;;;;;;;9.86;68.40;101074.34;104782;1263;64579;-55
2023/04/09 04:07:28;;;;;;;13.70;10.50;;;;;;;9.92;68.30;101076.27;105576;1263;62518;-55
2023/04/09 04:10:04;;;;;;;11.80;9.50;;;;;;;10.01;68.35;101084.43;106735;1264;65036;-55
2023/04/09 04:12:34;;;;;;;14.40;10.50;;;;;;;10.11;68.30;101086.73;104945;1263;60515;-56
2023/04/09 04:15:07;;;;;;;16.10;11.40;;;;;;;10.16;68.25;101087.79;105000;1263;59656;-54
2023/04/09 04:17:55;;;;;;;16.40;11.20;;;;;;;10.18;68.40;101087.99;105393;1261;65620;-54
2023/04/09 04:20:39;;;;;;;14.30;11.80;;;;;;;10.20;68.39;101090.17;105778;1257;61758;-55
2023/04/09 04:23:30;;;;;;;16.00;11.00;;;;;;;10.24;68.37;101090.63;105191;1259;65376;-54
2023/04/09 04:26:10;;;;;;;15.90;10.60;;;;;;;10.32;68.24;101093.77;105549;1257;59734;-54
2023/04/09 04:28:38;;;;;;;16.60;11.00;;;;;;;10.45;68.06;101099.40;105807;1257;59663;-54
2023/04/09 04:31:09;;;;;;;15.70;10.90;;;;;;;10.50;67.94;101102.25;105429;1256;64313;-55
2023/04/09 04:33:40;;;;;;;14.30;11.10;;;;;;;10.50;67.91;101100.67;105305;1257;62500;-55
2023/04/09 04:36:12;;;;;;;16.00;11.40;;;;;;;10.47;67.76;101102.45;105392;1256;64751;-54
2023/04/09 04:38:45;;;;;;;16.80;11.80;;;;;;;10.43;67.53;101104.14;105368;1256;59765;-54
2023/04/09 04:41:41;;;;;;;15.30;6.30;;;;;;;10.38;67.61;101100.38;105536;1257;59746;-54
2023/04/09 04:44:15;;;;;;;18.50;11.60;;;;;;;10.39;67.35;101099.82;105736;1256;65575;-55
2023/04/09 04:46:45;;;;;;;17.60;12.70;;;;;;;10.40;67.35;101099.71;104835;1257;62662;-55
2023/04/09 04:49:14;;;;;;;15.50;11.40;;;;;;;10.39;67.42;101098.05;105133;1257;65371;-55
2023/04/09 04:51:47;;;;;;;15.30;11.80;;;;;;;10.37;67.56;101098.15;105744;1256;60578;-55
2023/04/09 04:54:16;;;;;;;15.70;12.80;;;;;;;10.38;67.71;101093.73;105297;1256;59791;-55
2023/04/09 04:56:50;;;;;;;15.90;11.60;;;;;;;10.40;67.71;101100.11;106387;1257;65222;-55
2023/04/09 04:59:37;;;;;;;15.30;11.50;;;;;;;10.47;67.50;101104.18;105246;1261;62493;-56
2023/04/09 05:02:07;;;;;;;20.20;11.50;;;;;;;10.50;67.30;101102.92;105615;1257;64126;-55
2023/04/09 05:04:54;;;;;;;15.90;11.50;;;;;;;10.50;67.48;101105.52;105251;1257;60506;-55
2023/04/09 05:07:30;;;;;;;16.00;12.20;;;;;;;10.51;67.68;101106.90;105304;1260;59689;-55
2023/04/09 05:09:58;;;;;;;16.60;12.30;;;;;;;10.53;67.63;101103.21;106845;1259;65169;-55
2023/04/09 05:12:35;;;;;;;17.50;11.90;;;;;;;10.57;67.61;101106.48;106282;1256;62680;-55
2023/04/09 05:15:07;;;;;;;15.50;10.60;;;;;;;10.65;67.39;101106.79;105740;1257;65000;-56
2023/04/09 05:17:41;;;;;;;15.20;10.70;;;;;;;10.73;67.30;101109.02;106382;1257;59638;-54
2023/04/09 05:20:11;;;;;;;17.50;11.30;;;;;;;10.78;67.35;101108.20;106216;1260;59735;-54
2023/04/09 05:23:12;;;;;;;14.40;11.20;;;;;;;10.81;67.43;101110.26;106005;1260;65382;-55
2023/04/09 05:25:48;;;;;;;16.20;11.40;;;;;;;10.87;67.36;101109.48;105346;1261;61474;-55
2023/04/09 05:28:25;;;;;;;19.90;11.10;;;;;;;10.95;67.18;101108.94;105904;1258;64812;-55
2023/04/09 05:31:11;;;;;;;15.90;10.80;;;;;;;11.08;66.89;101109.08;105332;1257;59675;-55
2023/04/09 05:33:45;;;;;;;16.40;10.80;;;;;;;11.24;66.67;101108.17;105267;1257;59632;-55
2023/04/09 05:36:18;;;;;;;15.10;10.90;;;;;;;11.37;66.71;101106.34;105455;1260;65312;-54
2023/04/09 05:38:54;;;;;;;16.20;11.00;;;;;;;11.50;66.63;101106.26;105260;1260;61627;-55
2023/04/09 05:41:23;;;;;;;15.10;11.70;;;;;;;11.64;66.53;101105.59;105431;1257;65243;-55
2023/04/09 05:44:11;;;;;;;14.20;10.90;;;;;;;11.78;66.09;101106.37;106073;1257;59596;-56
2023/04/09 05:46:45;;;;;;;16.70;10.20;;;;;;;11.86;65.78;101109.98;105289;1257;59771;-56
2023/04/09 05:49:15;;;;;;;14.80;10.20;;;;;;;12.01;65.42;101108.22;105794;1259;65065;-57
2023/04/09 05:51:44;;;;;;;14.80;10.20;;;;;;;12.15;64.92;101107.16;105218;1257;62333;-56
2023/04/09 05:54:16;;;;;;;14.90;9.90;;;;;;;12.22;64.83;101112.80;105342;1257;64702;-56
2023/04/09 05:56:45;;;;;;;15.70;10.70;;;;;;;12.28;64.78;101115.88;105318;1256;59671;-56
2023/04/09 05:59:19;;;;;;;16.00;10.80;;;;;;;12.31;64.42;101116.67;105288;1257;59669;-56
2023/04/09 06:01:50;;;;;;;14.70;10.20;;;;;;;12.33;64.26;101120.98;105297;1260;64926;-55
2023/04/09 06:04:19;;;;;;;13.90;10.00;;;;;;;12.36;64.45;101119.14;106376;1257;62326;-55
2023/04/09 06:06:52;;;;;;;13.10;9.50;;;;;;;12.45;64.18;101123.00;105307;1257;64686;-55
2023/04/09 06:09:20;;;;;;;13.10;9.70;;;;;;;12.55;63.87;101130.05;105420;1257;59730;-55
2023/04/09 06:11:49;;;;;;;14.30;9.50;;;;;;;12.60;64.08;101129.08;105298;1257;59665;-55
2023/04/09 06:14:17;;;;;;;13.60;10.60;;;;;;;12.64;63.94;101132.29;105327;1258;65335;-55
2023/04/09 06:16:50;;;;;;;12.90;9.20;;;;;;;12.67;63.95;101131.60;105192;1257;62855;-55
2023/04/09 06:19:18;;;;;;;20.00;9.70;;;;;;;12.70;63.96;101134.89;105372;1257;64766;-55
2023/04/09 06:21:47;;;;;;;13.10;9.10;;;;;;;12.75;63.90;101137.97;105828;1256;59752;-55
2023/04/09 06:24:16;;;;;;;12.00;8.70;;;;;;;12.86;63.76;101138.41;105267;1256;59679;-54
2023/04/09 06:26:44;;;;;;;12.20;8.70;;;;;;;12.97;63.54;101139.45;105148;1255;65630;-56
2023/04/09 06:29:13;;;;;;;12.50;9.20;;;;;;;13.06;63.38;101142.94;105968;1259;62604;-57
2023/04/09 06:31:42;;;;;;;13.30;9.70;;;;;;;13.12;63.12;101144.81;105301;1256;65216;-57
2023/04/09 06:34:10;;;;;;;16.30;10.60;;;;;;;13.16;62.74;101142.53;106673;1260;59345;-56
2023/04/09 06:36:42;;;;;;;17.30;10.40;;;;;;;13.20;62.52;101142.21;105350;1257;59730;-56
2023/04/09 06:39:11;;;;;;;15.00;9.80;;;;;;;13.25;62.39;101142.23;105119;1256;65429;-56
2023/04/09 06:41:39;;;;;;;14.00;9.40;;;;;;;13.28;62.21;101145.49;105459;1257;62612;-56
2023/04/09 06:44:25;;;;;;;11.00;8.00;;;;;;;13.37;61.96;101142.34;105406;1257;64962;-56
2023/04/09 06:46:53;;;;;;;13.60;8.60;;;;;;;13.47;61.67;101143.13;105349;1257;59746;-57
2023/04/09 06:49:26;;;;;;;12.50;9.50;;;;;;;13.53;61.38;101142.07;105411;1257;60042;-57
2023/04/09 06:51:55;;;;;;;11.10;8.20;;;;;;;13.60;61.11;101144.77;105359;1260;65237;-58
2023/04/09 06:54:23;;;;;;;11.70;8.80;;;;;;;13.66;61.11;101142.80;107272;1257;62609;-56
2023/04/09 06:56:56;;;;;;;12.30;7.80;;;;;;;13.74;60.94;101137.09;105182;1256;64861;-57
2023/04/09 06:59:26;;;;;;;16.50;8.60;;;;;;;13.80;60.33;101139.40;106361;1256;59592;-57
2023/04/09 07:01:55;;;;;;;11.90;8.60;;;;;;;13.81;60.03;101137.88;105374;1257;59625;-56
2023/04/09 07:04:24;;;;;;;11.30;8.20;;;;;;;13.83;60.09;101138.48;106057;1260;65360;-55
2023/04/09 07:06:54;;;;;;;10.10;7.40;;;;;;;13.91;59.98;101140.09;105493;1257;62687;-56
2023/04/09 07:09:22;;;;;;;11.80;7.20;;;;;;;14.04;59.62;101138.02;107078;1259;64749;-55
2023/04/09 07:11:51;;;;;;;12.20;8.10;;;;;;;14.13;59.66;101138.50;105534;1257;59561;-57
2023/04/09 07:14:20;;;;;;;11.50;7.30;;;;;;;14.19;59.54;101140.27;105534;1257;59641;-57
2023/04/09 07:16:48;;;;;;;12.10;7.20;;;;;;;14.25;59.50;101139.96;105316;1260;65408;-57
2023/04/09 07:19:16;;;;;;;14.20;8.00;;;;;;;14.28;59.34;101136.81;105384;1257;62463;-57
2023/04/09 07:21:46;;;;;;;10.80;7.50;;;;;;;14.33;58.99;101138.19;105740;1257;64738;-55
2023/04/09 07:24:14;;;;;;;11.10;7.20;;;;;;;14.39;58.86;101137.95;105488;1256;59641;-55
2023/04/09 07:26:43;;;;;;;9.60;6.70;;;;;;;14.43;58.69;101138.40;105265;1262;59961;-56
2023/04/09 07:29:11;;;;;;;9.10;7.00;;;;;;;14.49;58.51;101137.98;106254;1257;65223;-55
2023/04/09 07:31:39;;;;;;;10.80;6.10;;;;;;;14.57;58.49;101137.62;105528;1259;62473;-55
2023/04/09 07:34:09;;;;;;;10.50;6.40;;;;;;;14.72;58.19;101136.95;105482;1258;65019;-57
2023/04/09 07:36:40;;;;;;;10.30;6.00;;;;;;;14.84;57.53;101138.17;105463;1257;59825;-56
2023/04/09 07:39:08;;;;;;;9.40;6.70;;;;;;;14.88;56.66;101131.28;105999;1257;59690;-55
2023/04/09 07:41:36;;;;;;;9.50;6.00;;;;;;;14.89;56.52;101134.38;105362;1256;65412;-55
2023/04/09 07:44:06;;;;;;;9.30;5.10;;;;;;;14.90;56.57;101138.34;105205;1257;62847;-54
2023/04/09 07:46:35;;;;;;;10.40;5.10;;;;;;;14.94;56.07;101140.01;105301;1260;65042;-55
2023/04/09 07:49:04;;;;;;;10.30;3.70;;;;;;;15.00;55.86;101139.94;105318;1257;59743;-55
2023/04/09 07:51:32;;;;;;;7.20;4.40;;;;;;;15.10;55.49;101136.66;106022;1257;59682;-55
2023/04/09 07:54:01;;;;;;;8.50;4.30;;;;;;;15.20;55.38;101139.14;105259;1256;65091;-56
2023/04/09 07:56:31;;;;;;;11.00;4.70;;;;;;;15.30;55.35;101138.46;105060;1257;62684;-58
2023/04/09 07:58:59;;;;;;;8.90;4.40;;;;;;;15.38;55.23;101137.04;104985;1260;65070;-58
2023/04/09 08:01:27;;;;;;;8.10;4.90;;;;;;;15.44;55.13;101139.36;105428;1258;60331;-58
2023/04/09 08:03:56;;;;;;;8.60;5.60;;;;;;;15.47;55.29;101142.45;105404;1257;60530;-58
2023/04/09 08:06:25;;;;;;;9.60;5.30;;;;;;;15.48;55.01;101143.37;105283;1257;66199;-58
2023/04/09 08:08:54;;;;;;;6.90;4.80;;;;;;;15.48;54.73;101142.33;105558;1256;62608;-58
2023/04/09 08:11:24;;;;;;;9.50;5.60;;;;;;;15.48;54.69;101143.95;105028;1259;67011;-58
2023/04/09 08:13:53;;;;;;;12.40;4.90;;;;;;;15.49;54.60;101144.39;105600;1257;60472;-59
2023/04/09 08:16:26;;;;;;;8.90;4.70;;;;;;;15.49;54.25;101146.46;105025;1257;60462;-60
2023/04/09 08:18:56;;;;;;;9.40;4.90;;;;;;;15.50;53.39;101146.92;105708;1260;66559;-59
2023/04/09 08:21:25;;;;;;;9.20;4.60;;;;;;;15.51;52.53;101145.30;105387;1257;62583;-59
2023/04/09 08:23:58;;;;;;;9.90;5.60;;;;;;;15.49;52.14;101148.25;105479;1258;64741;-58
2023/04/09 08:26:26;;;;;;;11.10;4.90;;;;;;;15.48;52.27;101142.70;105869;1256;60488;-58
2023/04/09 08:28:54;;;;;;;8.00;4.50;;;;;;;15.47;52.44;101137.14;105290;1257;60521;-58
2023/04/09 08:31:22;;;;;;;9.30;4.30;;;;;;;15.47;52.63;101135.52;105164;1257;65191;-57
2023/04/09 08:33:52;;;;;;;7.80;4.20;;;;;;;15.49;52.00;101133.77;105508;1260;62294;-56
2023/04/09 08:36:20;;;;;;;7.10;4.50;;;;;;;15.50;51.55;101134.19;105271;1257;65091;-56
2023/04/09 08:38:48;;;;;;;9.10;4.70;;;;;;;15.54;51.47;101132.77;107427;1260;60527;-72
2023/04/09 08:41:23;;;;;;;7.70;4.80;;;;;;;15.60;51.65;101135.20;106074;1258;60437;-67
2023/04/09 08:43:51;;;;;;;7.70;4.60;;;;;;;15.68;51.24;101131.51;105548;1260;66203;-64
2023/04/09 08:46:26;;;;;;;7.80;4.70;;;;;;;15.79;50.73;101126.88;105586;1259;61498;-61
2023/04/09 08:48:55;;;;;;;10.50;5.30;;;;;;;15.90;50.74;101125.16;105283;1257;72969;-70
2023/04/09 08:51:24;;;;;;;7.80;4.40;;;;;;;16.00;50.88;101122.09;106959;1258;60386;-63
2023/04/09 08:53:59;;;;;;;8.90;5.00;;;;;;;16.14;50.87;101118.56;105879;1257;60453;-67
2023/04/09 08:56:31;;;;;;;8.30;4.40;;;;;;;16.27;50.75;101117.17;105793;1260;66169;-65
2023/04/09 08:59:00;;;;;;;13.00;5.50;;;;;;;16.40;50.66;101114.38;105094;1260;62900;-65
2023/04/09 09:01:29;;;;;;;8.80;4.60;;;;;;;16.53;50.46;101112.84;105089;1257;64767;-65
2023/04/09 09:04:00;;;;;;;7.80;5.20;;;;;;;16.65;50.31;101111.20;106421;1260;60443;-67
2023/04/09 09:06:34;;;;;;;9.90;5.70;;;;;;;16.75;49.98;101112.21;105907;1257;60447;-69
2023/04/09 09:09:10;;;;;;;8.60;5.30;;;;;;;16.85;49.47;101108.59;105971;1260;65873;-67
2023/04/09 09:11:42;;;;;;;9.10;5.30;;;;;;;16.96;49.37;101108.45;106231;1257;62671;-70
2023/04/09 09:14:17;;;;;;;8.40;4.90;;;;;;;17.11;49.09;101111.09;105936;1257;66394;-67
2023/04/09 09:17:02;;;;;;;11.00;5.40;;;;;;;17.29;48.25;101110.29;105831;1258;61306;-71
2023/04/09 09:19:35;;;;;;;10.80;4.90;;;;;;;17.42;47.53;101110.63;105954;1257;60453;-68
2023/04/09 09:22:09;;;;;;;8.80;5.30;;;;;;;17.55;47.15;101110.74;106175;1260;66198;-68
2023/04/09 09:24:50;;;;;;;8.30;5.10;;;;;;;17.67;46.56;101109.40;105838;1257;62698;-70
2023/04/09 09:27:35;;;;;;;10.00;5.00;;;;;;;17.76;46.17;101102.29;106142;1260;64076;-66
2023/04/09 09:30:06;;;;;;;8.00;4.40;;;;;;;17.83;46.14;101098.70;106195;1256;60485;-68
2023/04/09 09:32:34;;;;;;;7.90;5.00;;;;;;;17.95;45.33;101099.77;105966;1260;60486;-68
2023/04/09 09:35:06;;;;;;;9.90;5.00;;;;;;;18.04;44.94;101100.43;105077;1261;66217;-67
2023/04/09 09:37:35;;;;;;;10.10;4.50;;;;;;;18.14;44.58;101098.38;106004;1257;62298;-67
2023/04/09 09:40:03;;;;;;;9.50;4.80;;;;;;;18.25;44.18;101092.48;105814;1257;64719;-70
2023/04/09 09:42:36;;;;;;;7.70;4.50;;;;;;;18.39;43.77;101094.22;105802;1263;61893;-72
2023/04/09 09:45:16;;;;;;;8.30;5.20;;;;;;;18.47;43.36;101088.11;104862;1257;61201;-63
2023/04/09 09:47:47;;;;;;;9.50;4.80;;;;;;;18.51;43.70;101086.11;105827;1262;66181;-64
2023/04/09 09:50:16;;;;;;;7.80;4.90;;;;;;;18.59;44.14;101084.48;106496;1262;62385;-68
2023/04/09 09:52:44;;;;;;;7.80;4.40;;;;;;;18.71;44.00;101084.71;105607;1257;65079;-68
2023/04/09 09:55:14;;;;;;;7.40;4.80;;;;;;;18.78;43.63;101088.18;105009;1257;60479;-69
2023/04/09 09:57:43;;;;;;;11.20;5.10;;;;;;;18.81;42.96;101084.32;106988;1256;60568;-68
2023/04/09 10:00:15;;;;;;;8.70;4.60;;;;;;;18.82;42.76;101084.56;105095;1260;65720;-70
2023/04/09 10:03:18;;;;;;;8.00;4.40;;;;;;;18.84;42.70;101086.93;106609;1260;61583;-73
2023/04/09 10:05:47;;;;;;;7.60;4.10;;;;;;;18.86;42.24;101085.15;105176;1258;64890;-67
2023/04/09 10:08:17;;;;;;;7.70;4.70;;;;;;;18.88;42.03;101084.43;105325;1257;60433;-66
2023/04/09 10:10:45;;;;;;;8.50;4.60;;;;;;;18.87;41.89;101080.23;105383;1260;60376;-69
2023/04/09 10:13:33;;;;;;;10.00;4.90;;;;;;;18.87;42.54;101081.29;105898;1257;64977;-70
2023/04/09 10:16:01;;;;;;;9.10;5.10;;;;;;;18.93;42.78;101077.13;105655;1260;61766;-65
2023/04/09 10:18:33;;;;;;;9.50;4.90;;;;;;;18.99;42.62;101074.23;105102;1257;65018;-70
2023/04/09 10:21:39;;;;;;;8.90;5.00;;;;;;;19.03;41.83;101071.85;105450;1257;60424;-64
2023/04/09 10:24:18;;;;;;;8.10;4.40;;;;;;;19.01;40.91;101068.30;105667;1257;60468;-68
2023/04/09 10:26:46;;;;;;;7.90;4.30;;;;;;;18.92;41.63;101067.50;104849;1260;65745;-67
2023/04/09 10:29:15;;;;;;;9.50;4.70;;;;;;;18.88;41.74;101069.73;105457;1258;62449;-72
2023/04/09 10:32:19;;;;;;;9.10;5.20;;;;;;;18.87;42.08;101065.48;106491;1260;64863;-70
2023/04/09 10:35:08;;;;;;;9.70;5.10;;;;;;;18.90;43.02;101062.73;105917;1257;60597;-68
2023/04/09 10:37:38;;;;;;;8.50;5.10;;;;;;;18.94;42.98;101058.55;105277;1258;60550;-66
2023/04/09 10:40:18;;;;;;;10.30;5.40;;;;;;;18.94;43.09;101059.05;108731;1257;66844;-68
2023/04/09 10:42:47;;;;;;;8.70;5.50;;;;;;;18.99;43.09;101052.89;106140;1258;62687;-68
2023/04/09 10:45:21;;;;;;;8.90;4.60;;;;;;;19.03;43.35;101047.31;105618;1260;73773;-71
2023/04/09 10:47:52;;;;;;;8.90;4.80;;;;;;;19.09;43.36;101045.59;105166;1258;60522;-66
2023/04/09 10:50:25;;;;;;;14.60;5.70;;;;;;;19.16;43.55;101041.69;105275;1257;60472;-66
2023/04/09 10:52:58;;;;;;;11.30;5.90;;;;;;;19.19;42.95;101037.52;105695;1260;66111;-69
2023/04/09 10:55:38;;;;;;;9.20;4.90;;;;;;;19.10;42.95;101038.17;105692;1257;62792;-69
2023/04/09 10:58:10;;;;;;;8.50;4.80;;;;;;;19.02;43.01;101034.81;106116;1260;64959;-68
2023/04/09 11:00:44;;;;;;;8.90;4.90;;;;;;;19.00;42.85;101034.70;105340;1256;60433;-65
2023/04/09 11:03:24;;;;;;;9.90;5.20;;;;;;;18.98;43.11;101032.39;106393;1252;60364;-66
2023/04/09 11:06:04;;;;;;;8.20;5.60;;;;;;;19.00;43.11;101027.70;107204;1254;74209;-65
2023/04/09 11:08:38;;;;;;;10.40;5.70;;;;;;;19.04;43.52;101023.87;106202;1255;62717;-62
2023/04/09 11:11:07;;;;;;;9.50;6.00;;;;;;;19.13;43.70;101015.53;109280;1253;65358;-71
2023/04/09 11:13:40;;;;;;;8.50;5.30;;;;;;;19.18;43.56;101013.60;108403;1254;60483;-55
2023/04/09 11:16:12;;;;;;;9.70;5.30;;;;;;;19.20;43.35;101010.34;105831;1256;60562;-55
2023/04/09 11:19:01;;;;;;;11.80;5.90;;;;;;;19.21;42.96;101008.98;107027;1254;64969;-54
2023/04/09 11:21:45;;;;;;;9.30;4.80;;;;;;;19.14;42.94;101011.33;106197;1254;62661;-57
2023/04/09 11:24:14;;;;;;;10.50;5.80;;;;;;;19.07;43.07;101007.05;105941;1257;65273;-56
2023/04/09 11:26:43;;;;;;;8.20;5.10;;;;;;;19.03;43.33;101002.64;105608;1257;60558;-54
2023/04/09 11:29:13;;;;;;;10.50;5.40;;;;;;;19.09;43.25;100996.39;105613;1254;60589;-57
2023/04/09 11:31:48;;;;;;;8.00;4.40;;;;;;;19.16;42.60;100994.70;105421;1256;66129;-55
2023/04/09 11:34:36;;;;;;;10.80;5.20;;;;;;;19.25;42.54;100995.54;109358;1253;64155;-56